createdAt,value
2018-06-04T00:01:58.946Z,18.57
2018-06-04T00:05:02.268Z,18.37
2018-06-04T00:08:05.746Z,17.40
2018-06-04T00:11:08.944Z,17.73
2018-06-04T00:14:12.147Z,17.43
2018-06-04T00:17:15.335Z,18.70
2018-06-04T00:20:18.506Z,18.47
2018-06-04T00:23:21.690Z,18.57
2018-06-04T00:26:24.841Z,17.33
2018-06-04T00:29:28.019Z,16.97
2018-06-04T00:32:31.184Z,18.33
2018-06-04T00:35:34.348Z,16.53
2018-06-04T00:38:37.498Z,17.67
2018-06-04T00:41:40.676Z,17.90
2018-06-04T00:44:43.957Z,18.07
2018-06-04T00:47:47.214Z,17.67
2018-06-04T00:50:50.408Z,18.47
2018-06-04T00:53:53.584Z,18.80
2018-06-04T00:56:56.817Z,19.03
2018-06-04T00:59:59.999Z,19.37
2018-06-04T01:03:03.226Z,19.03
2018-06-04T01:06:06.405Z,18.93
2018-06-04T01:09:09.540Z,19.17
2018-06-04T01:12:12.754Z,23.87
2018-06-04T01:15:15.927Z,33.13
2018-06-04T01:18:19.091Z,37.07
2018-06-04T01:21:22.277Z,27.23
2018-06-04T01:24:25.454Z,22.47
2018-06-04T01:27:28.639Z,30.30
2018-06-04T01:30:31.822Z,31.67
2018-06-04T01:33:35.014Z,21.93
2018-06-04T01:36:38.195Z,23.97
2018-06-04T01:39:41.367Z,23.67
2018-06-04T01:42:44.563Z,34.27
2018-06-04T01:45:47.711Z,26.17
2018-06-04T01:48:50.882Z,30.77
2018-06-04T01:51:54.047Z,31.20
2018-06-04T01:54:57.274Z,34.40
2018-06-04T01:58:00.446Z,31.27
2018-06-04T02:01:03.612Z,26.10
2018-06-04T02:04:06.768Z,22.00
2018-06-04T02:07:09.937Z,39.90
2018-06-04T02:10:13.061Z,36.50
2018-06-04T02:13:16.210Z,28.07
2018-06-04T02:16:19.402Z,24.03
2018-06-04T02:19:22.523Z,24.33
2018-06-04T02:22:25.662Z,116.87
2018-06-04T02:25:28.863Z,45.87
2018-06-04T02:28:31.979Z,24.80
2018-06-04T02:31:35.201Z,39.50
2018-06-04T02:34:38.337Z,28.80
2018-06-04T02:37:41.439Z,34.83
2018-06-04T02:40:44.620Z,30.53
2018-06-04T02:43:47.775Z,36.53
2018-06-04T02:46:50.913Z,32.17
2018-06-04T02:49:54.500Z,37.30
2018-06-04T02:52:57.634Z,33.30
2018-06-04T02:56:00.847Z,31.80
2018-06-04T02:59:04.040Z,27.03
2018-06-04T03:02:07.351Z,33.23
2018-06-04T03:05:10.505Z,35.67
2018-06-04T03:08:13.722Z,47.03
2018-06-04T03:11:16.880Z,28.97
2018-06-04T03:14:20.114Z,25.83
2018-06-04T03:17:23.294Z,32.57
2018-06-04T03:20:26.485Z,24.40
2018-06-04T03:23:29.822Z,29.00
2018-06-04T03:26:34.180Z,32.77
2018-06-04T03:29:37.377Z,32.80
2018-06-04T03:32:40.531Z,31.27
2018-06-04T03:35:43.686Z,32.97
2018-06-04T03:38:46.809Z,46.17
2018-06-04T03:41:50.062Z,63.27
2018-06-04T03:44:53.531Z,54.30
2018-06-04T03:47:57.872Z,61.27
2018-06-04T03:51:01.128Z,44.97
2018-06-04T03:54:04.349Z,29.47
2018-06-04T03:57:07.498Z,28.97
2018-06-04T04:00:10.649Z,30.40
2018-06-04T04:03:13.820Z,32.93
2018-06-04T04:06:16.969Z,26.93
2018-06-04T04:09:20.187Z,31.30
2018-06-04T04:12:23.339Z,28.90
2018-06-04T04:15:26.584Z,30.93
2018-06-04T04:18:29.752Z,31.13
2018-06-04T04:21:32.991Z,33.80
2018-06-04T04:24:36.427Z,31.57
2018-06-04T04:27:39.668Z,61.60
2018-06-04T04:30:42.885Z,48.00
2018-06-04T04:33:46.066Z,41.43
2018-06-04T04:36:49.204Z,30.33
2018-06-04T04:39:52.527Z,30.40
2018-06-04T04:42:55.743Z,30.67
2018-06-04T04:45:58.949Z,30.00
2018-06-04T04:49:02.125Z,30.33
2018-06-04T04:52:05.352Z,30.17
2018-06-04T04:55:08.538Z,29.97
2018-06-04T04:58:11.722Z,29.70
2018-06-04T05:01:14.916Z,27.57
2018-06-04T05:04:18.100Z,29.83
2018-06-04T05:07:21.336Z,32.73
2018-06-04T05:10:24.520Z,29.00
2018-06-04T05:13:27.698Z,27.30
2018-06-04T05:16:30.897Z,26.73
2018-06-04T05:19:34.134Z,24.13
2018-06-04T05:22:37.299Z,26.53
2018-06-04T05:25:40.476Z,24.87
2018-06-04T05:28:43.622Z,25.93
2018-06-04T05:31:46.868Z,23.77
2018-06-04T05:34:50.012Z,24.23
2018-06-04T05:37:55.164Z,43.93
2018-06-04T05:40:58.325Z,25.33
2018-06-04T05:44:01.477Z,25.87
2018-06-04T05:47:04.633Z,26.07
2018-06-04T05:50:07.772Z,22.67
2018-06-04T05:53:10.931Z,25.13
2018-06-04T05:56:14.135Z,45.43
2018-06-04T05:59:17.271Z,27.87
2018-06-04T06:02:20.459Z,21.97
2018-06-04T06:05:23.691Z,20.80
2018-06-04T06:08:27.711Z,22.10
2018-06-04T06:11:30.963Z,21.50
2018-06-04T06:14:34.133Z,20.73
2018-06-04T06:17:37.307Z,20.97
2018-06-04T06:20:40.507Z,20.13
2018-06-04T06:23:43.743Z,19.37
2018-06-04T06:26:46.935Z,18.30
2018-06-04T06:29:50.063Z,19.47
2018-06-04T06:32:53.254Z,53.57
2018-06-04T06:35:56.418Z,39.03
2018-06-04T06:38:59.549Z,20.27
2018-06-04T06:42:02.741Z,19.00
2018-06-04T06:45:05.954Z,21.23
2018-06-04T06:48:09.140Z,18.50
2018-06-04T06:51:12.311Z,16.00
2018-06-04T06:54:15.525Z,16.03
2018-06-04T06:57:18.708Z,18.60
2018-06-04T07:00:21.935Z,16.57
2018-06-04T07:03:25.118Z,25.73
2018-06-04T07:06:28.270Z,30.87
2018-06-04T07:09:31.464Z,16.60
2018-06-04T07:12:34.642Z,16.83
2018-06-04T07:15:37.813Z,16.20
2018-06-04T07:18:41.786Z,15.10
2018-06-04T07:21:45.025Z,17.37
2018-06-04T07:24:49.131Z,16.73
2018-06-04T07:27:52.333Z,18.07
2018-06-04T07:30:55.504Z,16.50
2018-06-04T07:33:58.775Z,14.87
2018-06-04T07:37:02.040Z,14.50
2018-06-04T07:40:05.291Z,15.60
2018-06-04T07:43:08.511Z,14.90
2018-06-04T07:46:11.729Z,16.00
2018-06-04T07:49:16.109Z,15.13
2018-06-04T07:52:19.749Z,32.90
2018-06-04T07:55:23.002Z,35.60
2018-06-04T07:58:26.239Z,22.10
2018-06-04T08:01:29.462Z,14.30
2018-06-04T08:04:32.696Z,17.43
2018-06-04T08:07:36.019Z,16.30
2018-06-04T08:10:39.938Z,16.40
2018-06-04T08:13:43.252Z,13.90
2018-06-04T08:16:46.393Z,13.50
2018-06-04T08:19:49.582Z,12.43
2018-06-04T08:22:52.741Z,12.07
2018-06-04T08:25:56.506Z,12.30
2018-06-04T08:28:59.697Z,12.17
2018-06-04T08:32:02.863Z,11.83
2018-06-04T08:35:06.080Z,12.10
2018-06-04T08:38:09.316Z,10.93
2018-06-04T08:41:12.478Z,11.50
2018-06-04T08:44:15.659Z,12.03
2018-06-04T08:47:18.842Z,12.47
2018-06-04T08:50:22.066Z,11.07
2018-06-04T08:53:25.330Z,10.50
2018-06-04T08:56:28.588Z,10.33
2018-06-04T08:59:31.892Z,11.23
2018-06-04T09:02:35.153Z,19.43
2018-06-04T09:05:38.440Z,11.53
2018-06-04T09:08:41.722Z,10.93
2018-06-04T09:11:45.005Z,9.93
2018-06-04T09:14:48.458Z,10.53
2018-06-04T09:17:51.880Z,10.77
2018-06-04T09:20:55.033Z,10.60
2018-06-04T09:23:58.378Z,11.33
2018-06-04T09:27:01.572Z,9.90
2018-06-04T09:30:04.845Z,9.53
2018-06-04T09:33:08.102Z,11.13
2018-06-04T09:36:12.761Z,10.27
2018-06-04T09:39:16.085Z,10.83
2018-06-04T09:42:19.280Z,9.70
2018-06-04T09:45:23.638Z,9.67
2018-06-04T09:48:26.861Z,10.17
2018-06-04T09:51:30.141Z,10.37
2018-06-04T09:54:33.351Z,12.63
2018-06-04T09:57:36.579Z,9.37
2018-06-04T10:00:39.968Z,9.87
2018-06-04T10:03:43.217Z,10.20
2018-06-04T10:06:47.330Z,10.03
2018-06-04T10:09:50.588Z,10.10
2018-06-04T10:12:53.825Z,9.27
2018-06-04T10:15:57.847Z,11.77
2018-06-04T10:19:01.099Z,15.70
2018-06-04T10:22:04.413Z,17.43
2018-06-04T10:25:07.706Z,10.73
2018-06-04T10:28:11.023Z,11.20
2018-06-04T10:31:15.253Z,9.77
2018-06-04T10:34:18.447Z,8.73
2018-06-04T10:37:21.668Z,8.90
2018-06-04T10:40:24.926Z,9.13
2018-06-04T10:43:28.106Z,10.93
2018-06-04T10:46:31.415Z,9.80
2018-06-04T10:49:35.894Z,9.23
2018-06-04T10:52:39.198Z,9.47
2018-06-04T10:55:42.414Z,9.03
2018-06-04T10:58:45.709Z,10.40
2018-06-04T11:01:48.925Z,10.10
2018-06-04T11:04:52.152Z,29.33
2018-06-04T11:07:55.290Z,11.80
2018-06-04T11:10:58.576Z,11.30
2018-06-04T11:14:01.728Z,15.47
2018-06-04T11:17:04.967Z,10.73
2018-06-04T11:20:08.161Z,8.30
2018-06-04T11:23:11.416Z,8.87
2018-06-04T11:26:14.644Z,9.23
2018-06-04T11:29:17.844Z,13.50
2018-06-04T11:32:21.137Z,8.47
2018-06-04T11:35:24.412Z,8.50
2018-06-04T11:38:27.729Z,8.53
2018-06-04T11:41:31.033Z,10.40
2018-06-04T11:44:34.292Z,8.17
2018-06-04T11:47:37.515Z,8.60
2018-06-04T11:50:40.739Z,8.83
2018-06-04T11:53:43.972Z,9.17
2018-06-04T11:56:47.267Z,9.93
2018-06-04T11:59:50.592Z,9.80
2018-06-04T12:02:53.962Z,8.93
2018-06-04T12:05:57.175Z,8.33
2018-06-04T12:09:01.071Z,8.03
2018-06-04T12:12:04.325Z,7.77
2018-06-04T12:15:07.561Z,8.57
2018-06-04T12:18:10.793Z,8.87
2018-06-04T12:21:14.344Z,26.13
2018-06-04T12:24:17.583Z,17.77
2018-06-04T12:27:20.795Z,23.37
2018-06-04T12:30:24.062Z,16.20
2018-06-04T12:33:27.437Z,8.67
2018-06-04T12:36:30.826Z,8.20
2018-06-04T12:39:34.160Z,7.83
2018-06-04T12:42:37.407Z,7.87
2018-06-04T12:45:40.595Z,8.10
2018-06-04T12:48:43.936Z,9.73
2018-06-04T12:51:47.152Z,10.07
2018-06-04T12:54:50.462Z,13.57
2018-06-04T12:57:54.804Z,8.27
2018-06-04T13:00:58.164Z,7.70
2018-06-04T13:04:01.405Z,7.80
2018-06-04T13:07:04.742Z,7.97
2018-06-04T13:10:11.662Z,9.83
2018-06-04T13:13:14.935Z,8.77
2018-06-04T13:16:18.430Z,13.37
2018-06-04T13:19:22.714Z,11.83
2018-06-04T13:22:25.975Z,11.13
2018-06-04T13:25:29.207Z,9.07
2018-06-04T13:28:32.429Z,76.93
2018-06-04T13:31:35.683Z,10.30
2018-06-04T13:34:38.930Z,9.60
2018-06-04T13:37:42.123Z,11.20
2018-06-04T13:40:45.405Z,29.23
2018-06-04T13:43:48.633Z,10.10
2018-06-04T13:46:51.902Z,17.43
2018-06-04T13:49:55.373Z,18.97
2018-06-04T13:52:58.633Z,8.63
2018-06-04T13:56:02.185Z,9.63
2018-06-04T13:59:06.116Z,9.23
2018-06-04T14:02:09.456Z,7.50
2018-06-04T14:05:12.924Z,54.50
2018-06-04T14:59:04.689Z,8.50
2018-06-04T15:02:08.166Z,7.33
2018-06-04T15:05:11.494Z,14.30
2018-06-04T15:08:14.826Z,13.83
2018-06-04T15:11:18.469Z,12.80
2018-06-04T15:14:21.900Z,25.73
2018-06-04T15:17:25.253Z,24.50
2018-06-04T15:20:28.871Z,11.37
2018-06-04T15:23:32.817Z,8.40
2018-06-04T15:26:37.348Z,8.60
2018-06-04T15:29:40.681Z,8.20
2018-06-04T15:32:44.024Z,8.53
2018-06-04T15:35:47.939Z,7.60
2018-06-04T15:38:51.319Z,8.27
2018-06-04T15:41:54.609Z,8.43
2018-06-04T15:44:57.919Z,8.40
2018-06-04T15:48:01.206Z,8.47
2018-06-04T15:51:04.720Z,10.83
2018-06-04T15:54:08.101Z,9.00
2018-06-04T15:57:13.882Z,11.03
2018-06-04T16:00:17.314Z,9.73
2018-06-04T16:03:20.983Z,8.90
2018-06-04T16:06:24.710Z,9.50
2018-06-04T16:09:28.008Z,9.83
2018-06-04T16:12:32.025Z,9.33
2018-06-04T16:15:36.489Z,9.77
2018-06-04T16:18:39.877Z,9.87
2018-06-04T16:21:43.320Z,9.67
2018-06-04T16:24:46.763Z,9.07
2018-06-04T16:27:50.072Z,10.30
2018-06-04T16:30:53.580Z,9.33
2018-06-04T16:33:57.152Z,10.40
2018-06-04T16:37:01.331Z,10.13
2018-06-04T16:40:05.576Z,11.43
2018-06-04T16:43:09.225Z,11.30
2018-06-04T16:46:12.816Z,11.67
2018-06-04T16:49:16.362Z,13.17
2018-06-04T16:52:19.785Z,10.80
2018-06-04T16:55:23.892Z,11.07
2018-06-04T16:58:28.118Z,10.50
2018-06-04T17:01:32.306Z,11.80
2018-06-04T17:04:35.730Z,15.03
2018-06-04T17:07:39.204Z,10.40
2018-06-04T17:10:42.625Z,9.93
2018-06-04T17:13:46.273Z,9.87
2018-06-04T17:16:49.809Z,9.40
2018-06-04T17:19:53.389Z,9.30
2018-06-04T17:22:57.289Z,9.43
2018-06-04T17:26:00.830Z,9.53
2018-06-04T17:29:04.489Z,9.13
2018-06-04T17:32:07.972Z,10.70
2018-06-04T17:35:11.456Z,9.20
2018-06-04T17:38:15.093Z,8.97
2018-06-04T17:41:18.501Z,10.00
2018-06-04T17:44:21.923Z,8.03
2018-06-04T17:47:26.339Z,8.67
2018-06-04T17:50:29.872Z,8.03
2018-06-04T17:53:33.481Z,8.53
2018-06-04T17:56:36.912Z,10.27
2018-06-04T17:59:40.521Z,8.27
2018-06-04T18:02:44.252Z,6.90
2018-06-04T18:05:47.752Z,5.93
2018-06-04T18:08:51.911Z,5.97
2018-06-04T18:11:55.384Z,5.10
2018-06-04T18:14:58.968Z,6.80
2018-06-04T18:18:02.376Z,8.80
2018-06-04T18:21:05.717Z,5.40
2018-06-04T18:24:09.101Z,5.70
2018-06-04T18:27:13.149Z,6.27
2018-06-04T18:30:16.898Z,4.93
2018-06-04T18:33:20.484Z,4.93
2018-06-04T18:36:24.003Z,13.13
2018-06-04T18:39:27.931Z,9.93
2018-06-04T18:42:31.603Z,8.53
2018-06-04T18:45:35.287Z,9.23
2018-06-04T18:48:38.741Z,7.43
2018-06-04T18:51:42.268Z,6.03
2018-06-04T18:54:46.748Z,5.13
2018-06-04T18:57:50.932Z,5.97
2018-06-04T19:00:54.420Z,6.20
2018-06-04T19:03:58.096Z,9.23
2018-06-04T19:07:01.649Z,7.93
2018-06-04T19:10:05.324Z,7.87
2018-06-04T19:13:08.947Z,10.33
2018-06-04T19:16:12.449Z,12.17
2018-06-04T19:19:15.879Z,10.40
2018-06-04T19:22:19.677Z,32.90
2018-06-04T19:25:24.105Z,31.00
2018-06-04T19:28:27.642Z,28.03
2018-06-04T19:31:31.310Z,23.53
2018-06-04T19:34:34.801Z,15.77
2018-06-04T19:37:38.212Z,15.27
2018-06-04T19:40:41.805Z,11.13
2018-06-04T19:43:45.280Z,12.83
2018-06-04T19:46:48.806Z,11.20
2018-06-04T19:49:52.282Z,11.93
2018-06-04T19:52:56.006Z,11.83
2018-06-04T19:55:59.485Z,12.03
2018-06-04T19:59:02.898Z,12.33
2018-06-04T20:02:06.451Z,12.20
2018-06-04T20:05:09.833Z,12.03
2018-06-04T20:08:13.297Z,12.17
2018-06-04T20:11:16.909Z,13.70
2018-06-04T20:14:20.551Z,20.43
2018-06-04T20:17:24.182Z,13.97
2018-06-04T20:20:28.029Z,13.83
2018-06-04T20:23:31.836Z,12.90
2018-06-04T20:26:36.224Z,14.20
2018-06-04T20:29:39.557Z,12.93
2018-06-04T20:32:42.847Z,13.17
2018-06-04T20:35:46.128Z,13.53
2018-06-04T20:38:49.498Z,12.73
2018-06-04T20:41:53.913Z,12.80
2018-06-04T20:44:57.207Z,12.33
2018-06-04T20:48:00.526Z,13.10
2018-06-04T20:51:03.945Z,12.70
2018-06-04T20:54:07.269Z,12.83
2018-06-04T20:57:11.350Z,28.27
2018-06-04T21:00:14.580Z,13.93
2018-06-04T21:03:18.025Z,12.77
2018-06-04T21:06:21.370Z,14.07
2018-06-04T21:09:24.758Z,13.73
2018-06-04T21:12:28.052Z,12.90
2018-06-04T21:15:31.283Z,12.43
2018-06-04T21:18:34.554Z,12.10
2018-06-04T21:21:37.848Z,13.17
2018-06-04T21:24:41.095Z,13.67
2018-06-04T21:27:44.415Z,13.33
2018-06-04T21:30:47.655Z,13.17
2018-06-04T21:33:50.948Z,13.40
2018-06-04T21:36:54.180Z,13.77
2018-06-04T21:39:57.413Z,13.43
2018-06-04T21:43:00.677Z,13.00
2018-06-04T21:46:04.001Z,12.93
2018-06-04T21:49:07.295Z,13.07
2018-06-04T21:52:10.630Z,13.73
2018-06-04T21:55:13.906Z,14.13
2018-06-04T21:58:17.241Z,13.33
2018-06-04T22:01:20.479Z,13.90
2018-06-04T22:04:23.699Z,13.67
2018-06-04T22:07:26.907Z,14.33
2018-06-04T22:10:30.100Z,13.77
2018-06-04T22:13:33.276Z,12.70
2018-06-04T22:16:36.499Z,12.97
2018-06-04T22:19:39.696Z,14.00
2018-06-04T22:22:43.062Z,12.60
2018-06-04T22:25:46.292Z,13.17
2018-06-04T22:28:49.480Z,12.93
2018-06-04T22:31:52.664Z,15.37
2018-06-04T22:34:55.860Z,15.03
2018-06-04T22:37:59.080Z,21.63
2018-06-04T22:41:02.388Z,17.80
2018-06-04T22:44:05.755Z,12.87
2018-06-04T22:47:08.939Z,14.40
2018-06-04T22:50:12.194Z,14.40
2018-06-04T22:53:15.385Z,14.30
2018-06-04T22:56:18.533Z,13.13
2018-06-04T22:59:21.719Z,14.17
2018-06-04T23:02:24.971Z,13.87
2018-06-04T23:05:28.251Z,13.87
2018-06-04T23:08:31.438Z,14.97
2018-06-04T23:11:34.624Z,14.23
2018-06-04T23:14:37.796Z,14.80
2018-06-04T23:17:40.990Z,15.73
2018-06-04T23:20:44.132Z,14.93
2018-06-04T23:23:47.350Z,14.57
2018-06-04T23:26:50.507Z,14.37
2018-06-04T23:29:53.694Z,13.37
2018-06-04T23:32:56.876Z,13.57
2018-06-04T23:36:00.052Z,14.00
2018-06-04T23:39:03.254Z,13.43
2018-06-04T23:42:06.435Z,14.20
2018-06-04T23:45:09.570Z,15.40
2018-06-04T23:48:12.759Z,15.00
2018-06-04T23:51:15.870Z,15.07
2018-06-04T23:54:19.054Z,14.83
2018-06-04T23:57:22.216Z,15.30
